sensor_id;sensor_type;location;lat;lon;timestamp;pressure;altitude;pressure_sealevel;temperature;humidity
20115;BME280;10218;42.874;25.320;2024-03-22T00:02:02;97413.88;;;8.19;100.00
20115;BME280;10218;42.874;25.320;2024-03-22T00:04:28;97416.03;;;8.33;100.00
20115;BME280;10218;42.874;25.320;2024-03-22T00:06:55;97411.09;;;8.38;100.00
20115;BME280;10218;42.874;25.320;2024-03-22T00:09:21;97407.22;;;8.50;100.00
20115;BME280;10218;42.874;25.320;2024-03-22T00:11:47;97406.88;;;8.00;100.00
20115;BME280;10218;42.874;25.320;2024-03-22T00:14:13;97407.66;;;8.64;100.00
20115;BME280;10218;42.874;25.320;2024-03-22T00:16:39;97404.09;;;8.55;100.00
20115;BME280;10218;42.874;25.320;2024-03-22T00:19:06;97409.25;;;8.39;100.00
20115;BME280;10218;42.874;25.320;2024-03-22T00:21:31;97404.38;;;8.16;100.00
20115;BME280;10218;42.874;25.320;2024-03-22T00:23:57;97401.37;;;8.47;100.00
20115;BME280;10218;42.874;25.320;2024-03-22T00:26:24;97406.47;;;8.40;100.00
20115;BME280;10218;42.874;25.320;2024-03-22T00:28:50;97399.53;;;8.30;100.00
20115;BME280;10218;42.874;25.320;2024-03-22T00:31:16;97413.78;;;8.29;100.00
20115;BME280;10218;42.874;25.320;2024-03-22T00:33:43;97404.19;;;8.45;100.00
20115;BME280;10218;42.874;25.320;2024-03-22T00:36:09;97397.84;;;8.64;100.00
20115;BME280;10218;42.874;25.320;2024-03-22T00:38:35;97415.34;;;8.67;100.00
20115;BME280;10218;42.874;25.320;2024-03-22T00:41:02;97403.16;;;8.64;100.00
20115;BME280;10218;42.874;25.320;2024-03-22T00:43:27;97401.66;;;8.26;100.00
20115;BME280;10218;42.874;25.320;2024-03-22T00:45:54;97403.34;;;8.45;100.00
20115;BME280;10218;42.874;25.320;2024-03-22T00:48:20;97399.34;;;8.13;100.00
20115;BME280;10218;42.874;25.320;2024-03-22T00:50:46;97416.16;;;8.14;100.00
20115;BME280;10218;42.874;25.320;2024-03-22T00:53:12;97411.56;;;7.89;100.00
20115;BME280;10218;42.874;25.320;2024-03-22T00:55:38;97410.78;;;7.79;100.00
20115;BME280;10218;42.874;25.320;2024-03-22T00:58:04;97413.94;;;8.09;100.00
20115;BME280;10218;42.874;25.320;2024-03-22T01:00:30;97409.59;;;8.08;100.00
20115;BME280;10218;42.874;25.320;2024-03-22T01:02:57;97406.06;;;8.18;100.00
20115;BME280;10218;42.874;25.320;2024-03-22T01:05:23;97406.34;;;8.14;100.00
20115;BME280;10218;42.874;25.320;2024-03-22T01:07:49;97412.38;;;8.34;100.00
20115;BME280;10218;42.874;25.320;2024-03-22T01:10:15;97411.59;;;8.24;100.00
20115;BME280;10218;42.874;25.320;2024-03-22T01:12:41;97408.72;;;8.18;100.00
20115;BME280;10218;42.874;25.320;2024-03-22T01:15:07;97410.81;;;8.14;100.00
20115;BME280;10218;42.874;25.320;2024-03-22T01:17:34;97406.31;;;8.42;100.00
20115;BME280;10218;42.874;25.320;2024-03-22T01:20:01;97400.41;;;8.21;100.00
20115;BME280;10218;42.874;25.320;2024-03-22T01:22:27;97392.81;;;8.26;100.00
20115;BME280;10218;42.874;25.320;2024-03-22T01:24:53;97403.75;;;8.32;100.00
20115;BME280;10218;42.874;25.320;2024-03-22T01:27:19;97396.22;;;8.18;100.00
20115;BME280;10218;42.874;25.320;2024-03-22T01:29:48;97402.09;;;8.22;100.00
20115;BME280;10218;42.874;25.320;2024-03-22T01:32:15;97401.41;;;8.02;100.00
20115;BME280;10218;42.874;25.320;2024-03-22T01:34:41;97407.97;;;7.80;100.00
20115;BME280;10218;42.874;25.320;2024-03-22T01:37:07;97404.34;;;7.81;100.00
20115;BME280;10218;42.874;25.320;2024-03-22T01:39:33;97400.97;;;7.79;100.00
20115;BME280;10218;42.874;25.320;2024-03-22T01:41:59;97404.44;;;8.07;100.00
20115;BME280;10218;42.874;25.320;2024-03-22T01:44:29;97408.16;;;7.96;100.00
20115;BME280;10218;42.874;25.320;2024-03-22T01:46:57;97406.09;;;7.90;100.00
20115;BME280;10218;42.874;25.320;2024-03-22T01:49:24;97399.91;;;8.17;100.00
20115;BME280;10218;42.874;25.320;2024-03-22T01:51:51;97403.59;;;8.24;100.00
20115;BME280;10218;42.874;25.320;2024-03-22T01:54:18;97400.09;;;8.24;100.00
20115;BME280;10218;42.874;25.320;2024-03-22T01:56:45;97395.53;;;7.98;100.00
20115;BME280;10218;42.874;25.320;2024-03-22T01:59:12;97404.63;;;7.78;100.00
20115;BME280;10218;42.874;25.320;2024-03-22T02:01:39;97409.16;;;7.68;100.00
20115;BME280;10218;42.874;25.320;2024-03-22T02:04:05;97405.19;;;7.72;100.00
20115;BME280;10218;42.874;25.320;2024-03-22T02:06:32;97406.09;;;7.63;100.00
20115;BME280;10218;42.874;25.320;2024-03-22T02:08:58;97397.13;;;7.64;100.00
20115;BME280;10218;42.874;25.320;2024-03-22T02:11:28;97403.97;;;7.39;100.00
20115;BME280;10218;42.874;25.320;2024-03-22T02:13:54;97405.94;;;7.37;100.00
20115;BME280;10218;42.874;25.320;2024-03-22T02:16:20;97405.94;;;7.00;100.00
20115;BME280;10218;42.874;25.320;2024-03-22T02:18:47;97399.94;;;7.35;100.00
20115;BME280;10218;42.874;25.320;2024-03-22T02:21:13;97402.97;;;7.50;100.00
20115;BME280;10218;42.874;25.320;2024-03-22T02:23:40;97403.97;;;7.39;100.00
20115;BME280;10218;42.874;25.320;2024-03-22T02:26:07;97409.78;;;7.25;100.00
20115;BME280;10218;42.874;25.320;2024-03-22T02:28:34;97412.16;;;7.18;100.00
20115;BME280;10218;42.874;25.320;2024-03-22T02:31:02;97420.91;;;6.92;100.00
20115;BME280;10218;42.874;25.320;2024-03-22T02:33:29;97413.09;;;6.71;100.00
20115;BME280;10218;42.874;25.320;2024-03-22T02:35:55;97414.41;;;6.48;100.00
20115;BME280;10218;42.874;25.320;2024-03-22T02:38:21;97417.72;;;6.78;100.00
20115;BME280;10218;42.874;25.320;2024-03-22T02:40:49;97422.59;;;6.83;100.00
20115;BME280;10218;42.874;25.320;2024-03-22T02:43:15;97433.25;;;6.35;100.00
20115;BME280;10218;42.874;25.320;2024-03-22T02:45:43;97427.94;;;6.16;100.00
20115;BME280;10218;42.874;25.320;2024-03-22T02:48:09;97415.34;;;6.66;100.00
20115;BME280;10218;42.874;25.320;2024-03-22T02:50:37;97415.94;;;6.69;100.00
20115;BME280;10218;42.874;25.320;2024-03-22T02:53:04;97421.81;;;6.44;100.00
20115;BME280;10218;42.874;25.320;2024-03-22T02:55:35;97435.50;;;6.49;100.00
20115;BME280;10218;42.874;25.320;2024-03-22T02:58:02;97421.25;;;6.40;100.00
20115;BME280;10218;42.874;25.320;2024-03-22T03:00:28;97430.75;;;6.33;100.00
20115;BME280;10218;42.874;25.320;2024-03-22T03:02:54;97434.66;;;6.29;100.00
20115;BME280;10218;42.874;25.320;2024-03-22T03:05:20;97431.53;;;5.95;100.00
20115;BME280;10218;42.874;25.320;2024-03-22T03:07:48;97431.84;;;6.21;100.00
20115;BME280;10218;42.874;25.320;2024-03-22T03:10:14;97429.59;;;5.97;100.00
20115;BME280;10218;42.874;25.320;2024-03-22T03:12:40;97430.69;;;5.95;100.00
20115;BME280;10218;42.874;25.320;2024-03-22T03:15:07;97431.28;;;6.18;100.00
20115;BME280;10218;42.874;25.320;2024-03-22T03:17:33;97436.19;;;5.63;100.00
20115;BME280;10218;42.874;25.320;2024-03-22T03:19:59;97434.00;;;5.78;100.00
20115;BME280;10218;42.874;25.320;2024-03-22T03:22:25;97431.47;;;5.76;100.00
20115;BME280;10218;42.874;25.320;2024-03-22T03:24:51;97437.12;;;5.52;100.00
20115;BME280;10218;42.874;25.320;2024-03-22T03:27:17;97441.28;;;5.55;100.00
20115;BME280;10218;42.874;25.320;2024-03-22T03:29:43;97435.41;;;5.42;100.00
20115;BME280;10218;42.874;25.320;2024-03-22T03:32:09;97442.19;;;5.75;100.00
20115;BME280;10218;42.874;25.320;2024-03-22T03:34:35;97444.09;;;5.93;100.00
20115;BME280;10218;42.874;25.320;2024-03-22T03:37:01;97452.59;;;5.47;100.00
20115;BME280;10218;42.874;25.320;2024-03-22T03:39:27;97457.94;;;5.06;100.00
20115;BME280;10218;42.874;25.320;2024-03-22T03:41:55;97453.75;;;5.34;100.00
20115;BME280;10218;42.874;25.320;2024-03-22T03:44:21;97446.78;;;5.02;100.00
20115;BME280;10218;42.874;25.320;2024-03-22T03:46:47;97457.09;;;5.05;100.00
20115;BME280;10218;42.874;25.320;2024-03-22T03:49:13;97451.81;;;5.05;100.00
20115;BME280;10218;42.874;25.320;2024-03-22T03:51:39;97453.19;;;5.60;100.00
20115;BME280;10218;42.874;25.320;2024-03-22T03:54:05;97448.44;;;5.64;100.00
20115;BME280;10218;42.874;25.320;2024-03-22T03:56:31;97457.88;;;5.47;100.00
20115;BME280;10218;42.874;25.320;2024-03-22T03:58:57;97455.84;;;5.30;100.00
20115;BME280;10218;42.874;25.320;2024-03-22T04:01:23;97449.72;;;5.09;100.00
20115;BME280;10218;42.874;25.320;2024-03-22T04:03:50;97460.00;;;5.23;100.00
20115;BME280;10218;42.874;25.320;2024-03-22T04:06:16;97454.94;;;4.90;100.00
20115;BME280;10218;42.874;25.320;2024-03-22T04:08:42;97459.88;;;4.62;100.00
20115;BME280;10218;42.874;25.320;2024-03-22T04:11:09;97471.22;;;4.53;100.00
20115;BME280;10218;42.874;25.320;2024-03-22T04:13:36;97473.50;;;4.99;100.00
20115;BME280;10218;42.874;25.320;2024-03-22T04:16:01;97472.50;;;4.91;100.00
20115;BME280;10218;42.874;25.320;2024-03-22T04:18:28;97478.34;;;4.73;100.00
20115;BME280;10218;42.874;25.320;2024-03-22T04:20:55;97476.22;;;4.47;100.00
20115;BME280;10218;42.874;25.320;2024-03-22T04:23:22;97492.09;;;4.67;100.00
20115;BME280;10218;42.874;25.320;2024-03-22T04:25:59;97490.97;;;5.02;100.00
20115;BME280;10218;42.874;25.320;2024-03-22T04:28:25;97494.50;;;5.12;100.00
20115;BME280;10218;42.874;25.320;2024-03-22T04:33:22;97496.56;;;4.88;100.00
20115;BME280;10218;42.874;25.320;2024-03-22T04:35:48;97504.38;;;5.31;100.00
20115;BME280;10218;42.874;25.320;2024-03-22T04:38:14;97506.59;;;4.20;100.00
20115;BME280;10218;42.874;25.320;2024-03-22T04:40:40;97503.72;;;4.12;100.00
20115;BME280;10218;42.874;25.320;2024-03-22T04:43:07;97513.41;;;4.34;100.00
20115;BME280;10218;42.874;25.320;2024-03-22T04:45:33;97517.50;;;4.27;100.00
20115;BME280;10218;42.874;25.320;2024-03-22T04:48:01;97524.03;;;4.12;100.00
20115;BME280;10218;42.874;25.320;2024-03-22T04:50:27;97507.75;;;4.27;100.00
20115;BME280;10218;42.874;25.320;2024-03-22T04:52:55;97528.53;;;4.32;100.00
20115;BME280;10218;42.874;25.320;2024-03-22T04:55:21;97505.03;;;4.07;100.00
20115;BME280;10218;42.874;25.320;2024-03-22T04:57:47;97520.88;;;4.29;100.00
20115;BME280;10218;42.874;25.320;2024-03-22T05:00:13;97507.81;;;4.48;100.00
20115;BME280;10218;42.874;25.320;2024-03-22T05:02:40;97518.78;;;5.17;100.00
20115;BME280;10218;42.874;25.320;2024-03-22T05:05:06;97504.72;;;4.43;100.00
20115;BME280;10218;42.874;25.320;2024-03-22T05:07:34;97521.12;;;4.26;100.00
20115;BME280;10218;42.874;25.320;2024-03-22T05:10:00;97520.97;;;4.39;100.00
20115;BME280;10218;42.874;25.320;2024-03-22T05:12:25;97503.25;;;4.50;100.00
20115;BME280;10218;42.874;25.320;2024-03-22T05:14:52;97504.88;;;4.30;100.00
20115;BME280;10218;42.874;25.320;2024-03-22T05:17:18;97522.38;;;4.74;100.00
20115;BME280;10218;42.874;25.320;2024-03-22T05:19:44;97522.53;;;5.14;100.00
20115;BME280;10218;42.874;25.320;2024-03-22T05:22:10;97525.22;;;4.83;100.00
20115;BME280;10218;42.874;25.320;2024-03-22T05:24:36;97524.44;;;4.71;100.00
20115;BME280;10218;42.874;25.320;2024-03-22T05:27:02;97517.31;;;4.51;100.00
20115;BME280;10218;42.874;25.320;2024-03-22T05:29:28;97513.12;;;4.37;100.00
20115;BME280;10218;42.874;25.320;2024-03-22T05:31:54;97516.50;;;4.71;100.00
20115;BME280;10218;42.874;25.320;2024-03-22T05:34:20;97513.56;;;5.27;100.00
20115;BME280;10218;42.874;25.320;2024-03-22T05:36:46;97518.53;;;5.20;100.00
20115;BME280;10218;42.874;25.320;2024-03-22T05:39:12;97516.84;;;5.19;100.00
20115;BME280;10218;42.874;25.320;2024-03-22T05:41:39;97518.09;;;5.45;100.00
20115;BME280;10218;42.874;25.320;2024-03-22T05:44:05;97522.59;;;5.85;100.00
20115;BME280;10218;42.874;25.320;2024-03-22T05:46:31;97512.91;;;5.65;100.00
20115;BME280;10218;42.874;25.320;2024-03-22T05:48:57;97515.56;;;5.95;100.00
20115;BME280;10218;42.874;25.320;2024-03-22T05:51:25;97522.03;;;6.12;100.00
20115;BME280;10218;42.874;25.320;2024-03-22T05:53:51;97527.59;;;5.99;100.00
20115;BME280;10218;42.874;25.320;2024-03-22T05:56:17;97529.03;;;6.22;100.00
20115;BME280;10218;42.874;25.320;2024-03-22T05:58:44;97520.00;;;6.34;100.00
20115;BME280;10218;42.874;25.320;2024-03-22T06:01:10;97529.97;;;6.80;100.00
20115;BME280;10218;42.874;25.320;2024-03-22T06:03:36;97529.06;;;6.41;100.00
20115;BME280;10218;42.874;25.320;2024-03-22T06:06:02;97529.09;;;6.51;100.00
20115;BME280;10218;42.874;25.320;2024-03-22T06:08:29;97535.94;;;6.82;100.00
20115;BME280;10218;42.874;25.320;2024-03-22T06:10:57;97521.25;;;7.07;100.00
20115;BME280;10218;42.874;25.320;2024-03-22T06:13:24;97528.22;;;7.27;100.00
20115;BME280;10218;42.874;25.320;2024-03-22T06:15:50;97535.75;;;7.88;100.00
20115;BME280;10218;42.874;25.320;2024-03-22T06:18:17;97542.59;;;8.18;100.00
20115;BME280;10218;42.874;25.320;2024-03-22T06:20:43;97540.09;;;8.44;100.00
20115;BME280;10218;42.874;25.320;2024-03-22T06:23:09;97536.47;;;8.45;100.00
20115;BME280;10218;42.874;25.320;2024-03-22T06:25:36;97549.75;;;8.72;100.00
20115;BME280;10218;42.874;25.320;2024-03-22T06:28:02;97531.94;;;8.90;100.00
20115;BME280;10218;42.874;25.320;2024-03-22T06:30:28;97548.53;;;9.02;100.00
20115;BME280;10218;42.874;25.320;2024-03-22T06:32:55;97553.16;;;9.00;100.00
20115;BME280;10218;42.874;25.320;2024-03-22T06:35:21;97556.06;;;9.24;100.00
20115;BME280;10218;42.874;25.320;2024-03-22T06:37:48;97558.56;;;9.26;100.00
20115;BME280;10218;42.874;25.320;2024-03-22T06:40:19;97555.97;;;9.34;100.00
20115;BME280;10218;42.874;25.320;2024-03-22T06:42:45;97560.78;;;9.82;100.00
20115;BME280;10218;42.874;25.320;2024-03-22T06:45:11;97551.31;;;9.87;91.82
20115;BME280;10218;42.874;25.320;2024-03-22T06:47:37;97564.66;;;9.87;90.79
20115;BME280;10218;42.874;25.320;2024-03-22T06:50:03;97555.56;;;9.47;96.04
20115;BME280;10218;42.874;25.320;2024-03-22T06:52:29;97559.28;;;10.39;84.79
20115;BME280;10218;42.874;25.320;2024-03-22T06:54:55;97568.63;;;11.01;75.50
20115;BME280;10218;42.874;25.320;2024-03-22T06:57:21;97563.28;;;10.35;74.67
20115;BME280;10218;42.874;25.320;2024-03-22T06:59:47;97567.72;;;10.60;70.84
20115;BME280;10218;42.874;25.320;2024-03-22T07:02:14;97568.28;;;10.96;65.17
20115;BME280;10218;42.874;25.320;2024-03-22T07:04:40;97575.28;;;10.97;66.79
20115;BME280;10218;42.874;25.320;2024-03-22T07:07:06;97574.59;;;10.29;70.25
20115;BME280;10218;42.874;25.320;2024-03-22T07:09:33;97579.41;;;10.67;67.04
20115;BME280;10218;42.874;25.320;2024-03-22T07:11:59;97572.41;;;10.24;64.58
20115;BME280;10218;42.874;25.320;2024-03-22T07:14:25;97578.53;;;10.17;65.75
20115;BME280;10218;42.874;25.320;2024-03-22T07:16:51;97579.97;;;11.03;64.72
20115;BME280;10218;42.874;25.320;2024-03-22T07:19:22;97573.97;;;11.01;61.70
20115;BME280;10218;42.874;25.320;2024-03-22T07:21:48;97577.87;;;11.47;60.97
20115;BME280;10218;42.874;25.320;2024-03-22T07:24:14;97570.66;;;11.32;58.84
20115;BME280;10218;42.874;25.320;2024-03-22T07:26:40;97583.50;;;10.96;60.35
20115;BME280;10218;42.874;25.320;2024-03-22T07:29:06;97586.06;;;10.63;62.79
20115;BME280;10218;42.874;25.320;2024-03-22T07:31:33;97580.53;;;11.47;58.53
20115;BME280;10218;42.874;25.320;2024-03-22T07:33:59;97583.00;;;12.06;52.99
20115;BME280;10218;42.874;25.320;2024-03-22T07:36:25;97579.84;;;11.70;51.32
20115;BME280;10218;42.874;25.320;2024-03-22T07:38:52;97573.47;;;11.71;52.45
20115;BME280;10218;42.874;25.320;2024-03-22T07:41:18;97567.00;;;11.73;51.80
20115;BME280;10218;42.874;25.320;2024-03-22T07:43:44;97583.94;;;12.29;49.32
20115;BME280;10218;42.874;25.320;2024-03-22T07:46:11;97593.88;;;11.64;48.96
20115;BME280;10218;42.874;25.320;2024-03-22T07:48:37;97580.53;;;11.72;48.29
20115;BME280;10218;42.874;25.320;2024-03-22T07:51:03;97580.16;;;12.07;48.24
20115;BME280;10218;42.874;25.320;2024-03-22T07:53:29;97576.13;;;12.50;46.78
20115;BME280;10218;42.874;25.320;2024-03-22T07:55:56;97559.63;;;12.30;46.26
20115;BME280;10218;42.874;25.320;2024-03-22T07:58:22;97580.50;;;11.96;46.41
20115;BME280;10218;42.874;25.320;2024-03-22T08:00:48;97586.50;;;12.06;45.59
20115;BME280;10218;42.874;25.320;2024-03-22T08:03:15;97576.69;;;12.37;46.16
20115;BME280;10218;42.874;25.320;2024-03-22T08:05:42;97575.16;;;12.82;43.58
20115;BME280;10218;42.874;25.320;2024-03-22T08:08:08;97582.28;;;12.98;45.67
20115;BME280;10218;42.874;25.320;2024-03-22T08:10:34;97576.53;;;12.78;44.86
20115;BME280;10218;42.874;25.320;2024-03-22T08:13:00;97571.78;;;13.11;44.36
20115;BME280;10218;42.874;25.320;2024-03-22T08:15:26;97585.31;;;12.95;44.09
20115;BME280;10218;42.874;25.320;2024-03-22T08:17:53;97584.41;;;13.33;42.50
20115;BME280;10218;42.874;25.320;2024-03-22T08:20:19;97583.44;;;13.49;41.82
20115;BME280;10218;42.874;25.320;2024-03-22T08:22:45;97580.78;;;13.49;40.72
20115;BME280;10218;42.874;25.320;2024-03-22T08:25:11;97578.31;;;13.16;40.98
20115;BME280;10218;42.874;25.320;2024-03-22T08:27:38;97581.97;;;12.93;38.89
20115;BME280;10218;42.874;25.320;2024-03-22T08:30:04;97575.00;;;13.14;38.30
20115;BME280;10218;42.874;25.320;2024-03-22T08:32:31;97566.12;;;13.06;39.56
20115;BME280;10218;42.874;25.320;2024-03-22T08:35:03;97565.16;;;14.04;38.57
20115;BME280;10218;42.874;25.320;2024-03-22T08:37:33;97569.72;;;14.48;37.43
20115;BME280;10218;42.874;25.320;2024-03-22T08:39:59;97571.81;;;15.18;35.60
20115;BME280;10218;42.874;25.320;2024-03-22T08:42:25;97566.28;;;14.54;35.38
20115;BME280;10218;42.874;25.320;2024-03-22T08:44:52;97570.66;;;14.91;34.82
20115;BME280;10218;42.874;25.320;2024-03-22T08:47:18;97576.00;;;15.06;35.09
20115;BME280;10218;42.874;25.320;2024-03-22T08:49:44;97564.25;;;14.27;33.95
20115;BME280;10218;42.874;25.320;2024-03-22T08:52:12;97573.72;;;14.52;32.45
20115;BME280;10218;42.874;25.320;2024-03-22T08:54:38;97577.16;;;14.96;34.15
20115;BME280;10218;42.874;25.320;2024-03-22T08:57:04;97571.19;;;14.65;33.11
20115;BME280;10218;42.874;25.320;2024-03-22T08:59:30;97579.91;;;14.67;32.27
20115;BME280;10218;42.874;25.320;2024-03-22T09:01:56;97568.47;;;15.37;31.41
20115;BME280;10218;42.874;25.320;2024-03-22T09:04:22;97574.81;;;15.29;32.08
20115;BME280;10218;42.874;25.320;2024-03-22T09:06:48;97568.03;;;15.12;32.55
20115;BME280;10218;42.874;25.320;2024-03-22T09:09:14;97568.34;;;15.03;31.69
20115;BME280;10218;42.874;25.320;2024-03-22T09:11:40;97566.12;;;14.91;31.24
20115;BME280;10218;42.874;25.320;2024-03-22T09:14:07;97555.06;;;16.14;31.93
20115;BME280;10218;42.874;25.320;2024-03-22T09:16:33;97547.91;;;15.72;31.03
20115;BME280;10218;42.874;25.320;2024-03-22T09:18:58;97543.94;;;17.38;30.34
20115;BME280;10218;42.874;25.320;2024-03-22T09:21:25;97554.63;;;15.82;30.09
20115;BME280;10218;42.874;25.320;2024-03-22T09:23:51;97550.53;;;15.65;29.50
20115;BME280;10218;42.874;25.320;2024-03-22T09:26:17;97552.69;;;16.73;29.56
20115;BME280;10218;42.874;25.320;2024-03-22T09:28:46;97544.56;;;16.32;28.03
20115;BME280;10218;42.874;25.320;2024-03-22T09:31:12;97546.13;;;15.86;28.14
20115;BME280;10218;42.874;25.320;2024-03-22T09:33:38;97548.16;;;17.93;28.32
20115;BME280;10218;42.874;25.320;2024-03-22T09:36:04;97549.22;;;16.86;27.03
20115;BME280;10218;42.874;25.320;2024-03-22T09:38:30;97550.44;;;15.80;27.73
20115;BME280;10218;42.874;25.320;2024-03-22T09:40:56;97540.22;;;17.52;27.04
20115;BME280;10218;42.874;25.320;2024-03-22T09:43:23;97530.03;;;18.20;26.53
20115;BME280;10218;42.874;25.320;2024-03-22T09:45:50;97540.00;;;17.47;28.37
20115;BME280;10218;42.874;25.320;2024-03-22T09:48:19;97545.34;;;16.19;28.26
20115;BME280;10218;42.874;25.320;2024-03-22T09:50:46;97537.56;;;17.66;27.53
20115;BME280;10218;42.874;25.320;2024-03-22T09:53:16;97536.91;;;17.44;27.24
20115;BME280;10218;42.874;25.320;2024-03-22T09:55:47;97535.03;;;17.51;26.63
20115;BME280;10218;42.874;25.320;2024-03-22T09:58:14;97532.44;;;16.97;26.62
20115;BME280;10218;42.874;25.320;2024-03-22T10:00:40;97525.72;;;17.80;26.88
20115;BME280;10218;42.874;25.320;2024-03-22T10:03:07;97525.72;;;18.77;25.83
20115;BME280;10218;42.874;25.320;2024-03-22T10:05:34;97521.09;;;17.34;28.39
20115;BME280;10218;42.874;25.320;2024-03-22T10:08:00;97521.66;;;18.42;27.51
20115;BME280;10218;42.874;25.320;2024-03-22T10:10:29;97517.97;;;18.87;26.65
20115;BME280;10218;42.874;25.320;2024-03-22T10:12:56;97512.38;;;17.39;28.34
20115;BME280;10218;42.874;25.320;2024-03-22T10:15:23;97503.84;;;19.16;27.75
20115;BME280;10218;42.874;25.320;2024-03-22T10:17:49;97512.00;;;18.72;28.45
20115;BME280;10218;42.874;25.320;2024-03-22T10:20:15;97504.22;;;18.31;26.21
20115;BME280;10218;42.874;25.320;2024-03-22T10:23:02;97508.41;;;19.79;27.36
20115;BME280;10218;42.874;25.320;2024-03-22T10:25:29;97507.91;;;18.56;27.92
20115;BME280;10218;42.874;25.320;2024-03-22T10:27:55;97507.09;;;18.36;27.60
20115;BME280;10218;42.874;25.320;2024-03-22T10:30:23;97507.59;;;18.77;26.93
20115;BME280;10218;42.874;25.320;2024-03-22T10:32:50;97505.88;;;18.38;28.25
20115;BME280;10218;42.874;25.320;2024-03-22T10:35:17;97503.56;;;18.29;27.79
20115;BME280;10218;42.874;25.320;2024-03-22T10:37:44;97499.84;;;18.88;28.41
20115;BME280;10218;42.874;25.320;2024-03-22T10:40:11;97494.66;;;19.80;29.58
20115;BME280;10218;42.874;25.320;2024-03-22T10:42:41;97484.72;;;19.11;28.67
20115;BME280;10218;42.874;25.320;2024-03-22T10:45:12;97481.41;;;19.90;25.93
20115;BME280;10218;42.874;25.320;2024-03-22T10:47:40;97484.53;;;19.38;27.56
20115;BME280;10218;42.874;25.320;2024-03-22T10:50:10;97475.84;;;20.03;28.41
20115;BME280;10218;42.874;25.320;2024-03-22T10:52:54;97474.69;;;19.50;27.93
20115;BME280;10218;42.874;25.320;2024-03-22T10:55:27;97479.06;;;20.37;26.79
20115;BME280;10218;42.874;25.320;2024-03-22T10:57:57;97471.84;;;19.63;28.59
20115;BME280;10218;42.874;25.320;2024-03-22T11:00:28;97477.50;;;18.61;28.81
20115;BME280;10218;42.874;25.320;2024-03-22T11:02:56;97475.47;;;18.94;30.20
20115;BME280;10218;42.874;25.320;2024-03-22T11:05:22;97467.09;;;19.27;28.30
20115;BME280;10218;42.874;25.320;2024-03-22T11:08:02;97464.69;;;18.81;29.26
20115;BME280;10218;42.874;25.320;2024-03-22T11:10:33;97450.31;;;19.43;28.54
20115;BME280;10218;42.874;25.320;2024-03-22T11:13:04;97458.09;;;20.44;28.17
20115;BME280;10218;42.874;25.320;2024-03-22T11:15:33;97453.63;;;20.13;29.17
20115;BME280;10218;42.874;25.320;2024-03-22T11:17:59;97448.84;;;19.47;29.08
20115;BME280;10218;42.874;25.320;2024-03-22T11:20:27;97443.16;;;19.98;29.08
20115;BME280;10218;42.874;25.320;2024-03-22T11:22:54;97443.84;;;21.08;28.17
20115;BME280;10218;42.874;25.320;2024-03-22T11:25:20;97447.75;;;18.54;29.91
20115;BME280;10218;42.874;25.320;2024-03-22T11:27:47;97434.03;;;20.96;29.97
20115;BME280;10218;42.874;25.320;2024-03-22T11:30:14;97436.12;;;21.23;28.62
20115;BME280;10218;42.874;25.320;2024-03-22T11:32:40;97439.31;;;20.42;29.20
20115;BME280;10218;42.874;25.320;2024-03-22T11:35:12;97438.25;;;18.32;32.00
20115;BME280;10218;42.874;25.320;2024-03-22T11:37:41;97427.50;;;20.37;31.03
20115;BME280;10218;42.874;25.320;2024-03-22T11:40:11;97429.34;;;21.91;28.39
20115;BME280;10218;42.874;25.320;2024-03-22T11:42:40;97423.41;;;21.59;28.48
20115;BME280;10218;42.874;25.320;2024-03-22T11:45:08;97422.63;;;20.75;29.24
20115;BME280;10218;42.874;25.320;2024-03-22T11:47:36;97418.41;;;19.70;30.88
20115;BME280;10218;42.874;25.320;2024-03-22T11:50:03;97425.06;;;20.47;30.02
20115;BME280;10218;42.874;25.320;2024-03-22T11:52:29;97425.28;;;20.93;28.11
20115;BME280;10218;42.874;25.320;2024-03-22T11:54:56;97415.97;;;21.54;28.78
20115;BME280;10218;42.874;25.320;2024-03-22T11:57:24;97412.75;;;18.97;31.18
20115;BME280;10218;42.874;25.320;2024-03-22T11:59:50;97418.88;;;18.35;33.25
20115;BME280;10218;42.874;25.320;2024-03-22T12:02:17;97410.72;;;18.86;31.69
20115;BME280;10218;42.874;25.320;2024-03-22T12:04:46;97411.41;;;17.00;33.91
20115;BME280;10218;42.874;25.320;2024-03-22T12:07:17;97415.00;;;15.93;35.69
20115;BME280;10218;42.874;25.320;2024-03-22T12:09:44;97416.16;;;16.79;35.55
20115;BME280;10218;42.874;25.320;2024-03-22T12:12:12;97414.78;;;18.19;33.77
20115;BME280;10218;42.874;25.320;2024-03-22T12:14:38;97405.44;;;19.72;32.93
20115;BME280;10218;42.874;25.320;2024-03-22T12:17:06;97410.78;;;21.00;30.70
20115;BME280;10218;42.874;25.320;2024-03-22T12:19:32;97409.25;;;20.07;30.82
20115;BME280;10218;42.874;25.320;2024-03-22T12:21:58;97399.78;;;21.36;30.45
20115;BME280;10218;42.874;25.320;2024-03-22T12:24:26;97404.75;;;21.86;28.28
20115;BME280;10218;42.874;25.320;2024-03-22T12:26:53;97390.44;;;21.32;29.43
20115;BME280;10218;42.874;25.320;2024-03-22T12:29:19;97390.53;;;22.58;28.27
20115;BME280;10218;42.874;25.320;2024-03-22T12:31:47;97387.94;;;21.30;28.95
20115;BME280;10218;42.874;25.320;2024-03-22T12:34:13;97383.25;;;19.63;32.21
20115;BME280;10218;42.874;25.320;2024-03-22T12:36:40;97385.38;;;17.85;32.69
20115;BME280;10218;42.874;25.320;2024-03-22T12:39:06;97390.19;;;19.78;32.41
20115;BME280;10218;42.874;25.320;2024-03-22T12:41:32;97385.38;;;19.80;30.61
20115;BME280;10218;42.874;25.320;2024-03-22T12:43:59;97380.28;;;19.47;30.82
20115;BME280;10218;42.874;25.320;2024-03-22T12:46:26;97370.84;;;21.00;31.49
20115;BME280;10218;42.874;25.320;2024-03-22T12:48:53;97371.25;;;20.74;30.73
20115;BME280;10218;42.874;25.320;2024-03-22T12:51:20;97374.75;;;20.15;29.72